Time;durP1;ratioP1;P1;durP2;ratioP2;P2;SDS_P1;SDS_P2;PMS_P1;PMS_P2;Temp;Humidity;BMP_temperature;BMP_pressure;BME280_temperature;BME280_humidity;BME280_pressure;Samples;Min_cycle;Max_cycle;Signal;HPM_P1;HPM_P2
2022/11/02 00:00:04;;;;;;;;;;;;;;;12.29;100.00;100565.75;3056000;19;19926;-46
2022/11/02 00:01:13;;;;;;;;;;;;;;;12.30;100.00;100572.81;3056091;19;19926;-47
2022/11/02 00:02:18;;;;;;;;;;;;;;;12.30;100.00;100572.81;3055290;19;20092;-50
2022/11/02 00:03:20;;;;;;;;;;;;;;;12.29;100.00;100570.22;3055147;19;20405;-49
2022/11/02 00:04:24;;;;;;;;;;;;;;;12.31;100.00;100573.66;3056196;19;19915;-46
2022/11/02 00:05:26;;;;;;;;;;;;;;;12.31;100.00;100568.31;3056746;19;19919;-49
2022/11/02 00:06:30;;;;;;;;;;;;;;;12.33;100.00;100575.25;3055949;19;19926;-47
2022/11/02 00:07:32;;;;;;;;;;;;;;;12.33;100.00;100577.06;3055909;19;20337;-48
2022/11/02 00:08:36;;;;;;;;;;;;;;;12.34;100.00;100574.28;3056099;19;19918;-51
2022/11/02 00:09:38;;;;;;;;;;;;;;;12.34;100.00;100576.97;3055799;19;20017;-47
2022/11/02 00:10:43;;;;;;;;;;;;;;;12.34;100.00;100579.66;3056107;19;19922;-45
2022/11/02 00:11:45;;;;;;;;;;;;;;;12.35;100.00;100581.38;3056191;19;19926;-47
2022/11/02 00:12:49;;;;;;;;;;;;;;;12.35;100.00;100581.38;3055298;19;19922;-45
2022/11/02 00:13:51;;;;;;;;;;;;;;;12.37;100.00;100579.44;3056054;19;20025;-49
2022/11/02 00:14:55;;;;;;;;;;;;;;;12.40;100.00;100583.75;3056062;19;19927;-49
2022/11/02 00:16:00;;;;;;;;;;;;;;;12.40;100.00;100584.59;3056028;19;19914;-48
2022/11/02 00:17:04;;;;;;;;;;;;;;;12.38;100.00;100581.16;3055673;19;19928;-49
2022/11/02 00:18:08;;;;;;;;;;;;;;;12.41;100.00;100580.09;3056204;19;19927;-45
2022/11/02 00:19:12;;;;;;;;;;;;;;;12.40;100.00;100579.25;3055600;19;19930;-47
2022/11/02 00:20:15;;;;;;;;;;;;;;;12.42;100.00;100581.81;3056134;19;19994;-46
2022/11/02 00:21:20;;;;;;;;;;;;;;;12.37;100.00;100574.09;3056181;19;19926;-50
2022/11/02 00:22:22;;;;;;;;;;;;;;;12.43;100.00;100588.91;3056099;19;20047;-46
2022/11/02 00:23:26;;;;;;;;;;;;;;;12.42;100.00;100580.00;3054633;19;19918;-52
2022/11/02 00:24:28;;;;;;;;;;;;;;;12.43;100.00;100579.06;3055097;19;19947;-49
2022/11/02 00:25:33;;;;;;;;;;;;;;;12.44;100.00;100586.09;3055344;19;19918;-49
2022/11/02 00:26:35;;;;;;;;;;;;;;;12.46;100.00;100584.16;3056241;19;19934;-52
2022/11/02 00:27:39;;;;;;;;;;;;;;;12.47;100.00;100580.53;3055560;19;19923;-45
2022/11/02 00:28:41;;;;;;;;;;;;;;;12.48;100.00;100586.75;3055901;19;19923;-48
2022/11/02 00:29:45;;;;;;;;;;;;;;;12.49;100.00;100580.44;3055562;19;19923;-49
2022/11/02 00:30:48;;;;;;;;;;;;;;;12.48;100.00;100584.94;3056241;19;19926;-51
2022/11/02 00:31:52;;;;;;;;;;;;;;;12.50;100.00;100585.69;3055550;19;19927;-47
2022/11/02 00:32:54;;;;;;;;;;;;;;;12.50;100.00;100583.00;3055448;19;19994;-47
2022/11/02 00:33:58;;;;;;;;;;;;;;;12.51;100.00;100592.75;3055537;19;19922;-49
2022/11/02 00:35:00;;;;;;;;;;;;;;;12.52;100.00;100578.41;3056146;19;19940;-47
2022/11/02 00:36:05;;;;;;;;;;;;;;;12.54;100.00;100586.34;3055712;19;19932;-49
2022/11/02 00:37:06;;;;;;;;;;;;;;;12.52;100.00;100569.53;3055726;19;19926;-48
2022/11/02 00:38:11;;;;;;;;;;;;;;;12.52;100.00;100585.59;3055569;19;19926;-47
2022/11/02 00:39:13;;;;;;;;;;;;;;;12.51;100.00;100590.09;3054798;19;19926;-46
2022/11/02 00:40:17;;;;;;;;;;;;;;;12.50;100.00;100580.34;3054662;19;19926;-45
2022/11/02 00:41:20;;;;;;;;;;;;;;;12.52;100.00;100583.78;3058001;19;19915;-46
2022/11/02 00:42:24;;;;;;;;;;;;;;;12.52;100.00;100583.78;3058594;19;20046;-45
2022/11/02 00:43:26;;;;;;;;;;;;;;;12.52;100.00;100581.09;3059040;19;20179;-46
2022/11/02 00:44:30;;;;;;;;;;;;;;;12.50;100.00;100583.00;3057538;19;20358;-45
2022/11/02 00:45:32;;;;;;;;;;;;;;;12.51;100.00;100582.06;3058259;19;19919;-46
2022/11/02 00:46:37;;;;;;;;;;;;;;;12.51;100.00;100586.53;3058080;19;19930;-47
2022/11/02 00:47:38;;;;;;;;;;;;;;;12.50;100.00;100574.97;3058327;19;19914;-48
2022/11/02 00:48:43;;;;;;;;;;;;;;;12.50;100.00;100577.66;3056755;19;19923;-47
2022/11/02 00:49:46;;;;;;;;;;;;;;;12.50;100.00;100574.97;3057930;19;19942;-45
2022/11/02 00:50:50;;;;;;;;;;;;;;;12.51;100.00;100582.06;3057473;19;19941;-48
2022/11/02 00:51:54;;;;;;;;;;;;;;;12.52;100.00;100575.75;3057889;19;19942;-49
2022/11/02 00:53:00;;;;;;;;;;;;;;;12.53;100.00;100579.28;3057227;19;19946;-47
2022/11/02 00:54:02;;;;;;;;;;;;;;;12.54;100.00;100571.16;3058057;19;19938;-44
2022/11/02 00:55:07;;;;;;;;;;;;;;;12.55;100.00;100570.19;3057369;19;19926;-48
2022/11/02 00:56:10;;;;;;;;;;;;;;;12.57;100.00;100570.91;3057773;19;19956;-44
2022/11/02 00:57:16;;;;;;;;;;;;;;;12.58;100.00;100561.91;3057363;19;19942;-48
2022/11/02 00:58:18;;;;;;;;;;;;;;;12.60;100.00;100568.03;3057397;19;19919;-47
2022/11/02 00:59:22;;;;;;;;;;;;;;;12.60;100.00;100565.34;3057519;19;19942;-47
2022/11/02 01:00:24;;;;;;;;;;;;;;;12.62;100.00;100573.28;3058014;19;19923;-48
2022/11/02 01:01:28;;;;;;;;;;;;;;;12.63;100.00;100566.97;3057366;19;19935;-48
2022/11/02 01:02:31;;;;;;;;;;;;;;;12.63;100.00;100566.97;3057433;19;19915;-47
2022/11/02 01:03:36;;;;;;;;;;;;;;;12.63;100.00;100570.50;3058413;19;19918;-47
2022/11/02 01:04:38;;;;;;;;;;;;;;;12.66;100.00;100573.94;3058563;19;19922;-49
2022/11/02 01:05:42;;;;;;;;;;;;;;;12.64;100.00;100566.00;3058262;19;19923;-47
2022/11/02 01:06:44;;;;;;;;;;;;;;;12.64;100.00;100566.00;3058476;19;19915;-48
2022/11/02 01:07:49;;;;;;;;;;;;;;;12.64;100.00;100560.66;3058054;19;20231;-48
2022/11/02 01:08:50;;;;;;;;;;;;;;;12.65;100.00;100567.72;3057469;19;20255;-45
2022/11/02 01:09:55;;;;;;;;;;;;;;;12.67;100.00;100570.31;3056888;19;20011;-48
2022/11/02 01:10:57;;;;;;;;;;;;;;;12.67;100.00;100567.63;3058570;19;20355;-46
2022/11/02 01:12:01;;;;;;;;;;;;;;;12.67;100.00;100568.47;3056810;19;19946;-46
2022/11/02 01:13:03;;;;;;;;;;;;;;;12.70;100.00;100575.41;3057182;19;19924;-45
2022/11/02 01:14:07;;;;;;;;;;;;;;;12.71;100.00;100566.44;3057949;19;19927;-45
2022/11/02 01:15:12;;;;;;;;;;;;;;;12.72;100.00;100568.16;3057556;19;19949;-46
2022/11/02 01:16:14;;;;;;;;;;;;;;;12.73;100.00;100569.88;3057350;19;19915;-47
2022/11/02 01:17:18;;;;;;;;;;;;;;;12.73;100.00;100570.72;3057596;19;20333;-46
2022/11/02 01:18:20;;;;;;;;;;;;;;;12.73;100.00;100575.22;3057404;19;19930;-49
2022/11/02 01:19:26;;;;;;;;;;;;;;;12.73;100.00;100569.88;3057519;19;20010;-48
2022/11/02 01:20:30;;;;;;;;;;;;;;;12.75;100.00;100578.66;3057947;19;19918;-52
2022/11/02 01:21:35;;;;;;;;;;;;;;;12.74;100.00;100575.13;3058218;19;20249;-51
2022/11/02 01:22:36;;;;;;;;;;;;;;;12.75;100.00;100575.97;3058162;19;19919;-47
2022/11/02 01:23:41;;;;;;;;;;;;;;;12.74;100.00;100579.63;3058235;19;19915;-46
2022/11/02 01:24:44;;;;;;;;;;;;;;;12.73;100.00;100575.22;3056895;19;19978;-50
2022/11/02 01:25:48;;;;;;;;;;;;;;;12.73;100.00;100576.06;3057350;19;19927;-49
2022/11/02 01:26:51;;;;;;;;;;;;;;;12.72;100.00;100574.34;3058129;19;19919;-48
2022/11/02 01:27:55;;;;;;;;;;;;;;;12.73;100.00;100573.41;3057127;19;19974;-45
2022/11/02 01:28:57;;;;;;;;;;;;;;;12.74;100.00;100576.94;3058119;19;19938;-47
2022/11/02 01:30:01;;;;;;;;;;;;;;;12.74;100.00;100571.56;3056453;19;20276;-48
2022/11/02 01:31:03;;;;;;;;;;;;;;;12.76;100.00;100572.34;3059398;19;19927;-45
2022/11/02 01:32:08;;;;;;;;;;;;;;;12.77;100.00;100576.72;3057750;19;19919;-51
2022/11/02 01:33:10;;;;;;;;;;;;;;;12.79;100.00;100577.50;3058237;19;19923;-47
2022/11/02 01:34:14;;;;;;;;;;;;;;;12.81;100.00;100580.88;3056175;19;19939;-46
2022/11/02 01:35:17;;;;;;;;;;;;;;;12.80;100.00;100571.16;3057334;19;19922;-47
2022/11/02 01:36:22;;;;;;;;;;;;;;;12.80;100.00;100577.34;3057168;19;19919;-49
2022/11/02 01:37:25;;;;;;;;;;;;;;;12.81;100.00;100573.72;3057355;19;20289;-46
2022/11/02 01:38:29;;;;;;;;;;;;;;;12.82;100.00;100566.53;3057250;19;19988;-49
2022/11/02 01:39:31;;;;;;;;;;;;;;;12.82;100.00;100574.56;3058146;19;19918;-45
2022/11/02 01:40:38;;;;;;;;;;;;;;;12.82;100.00;100563.84;3057638;19;20259;-45
2022/11/02 01:41:40;;;;;;;;;;;;;;;12.79;100.00;100564.97;3058033;19;19941;-49
2022/11/02 01:42:47;;;;;;;;;;;;;;;12.80;100.00;100565.81;3056912;19;19931;-48
2022/11/02 01:43:50;;;;;;;;;;;;;;;12.78;100.00;100573.09;3057199;19;19915;-49
2022/11/02 01:44:55;;;;;;;;;;;;;;;12.76;100.00;100569.66;3056487;19;19915;-47
2022/11/02 01:46:09;;;;;;;;;;;;;;;12.73;100.00;100564.50;3058157;19;20685;-45
2022/11/02 01:47:32;;;;;;;;;;;;;;;12.74;100.00;100568.91;3057935;19;19919;-47
2022/11/02 01:48:41;;;;;;;;;;;;;;;12.73;100.00;100565.38;3058072;19;20242;-48
2022/11/02 01:49:46;;;;;;;;;;;;;;;12.74;100.00;100567.09;3057727;19;20245;-47
2022/11/02 01:50:48;;;;;;;;;;;;;;;12.74;100.00;100564.41;3056634;19;20273;-46
2022/11/02 01:51:58;;;;;;;;;;;;;;;12.75;100.00;100563.44;3056376;19;20366;-44
2022/11/02 01:53:00;;;;;;;;;;;;;;;12.77;100.00;100560.66;3058031;19;19939;-46
2022/11/02 01:54:07;;;;;;;;;;;;;;;12.77;100.00;100555.31;3056061;19;20365;-48
2022/11/02 01:55:15;;;;;;;;;;;;;;;12.76;100.00;100558.94;3056747;19;19939;-48
2022/11/02 01:56:21;;;;;;;;;;;;;;;12.76;100.00;100553.59;3056897;19;19923;-48
2022/11/02 01:57:47;;;;;;;;;;;;;;;12.77;100.00;100555.31;3056821;19;19923;-50
2022/11/02 01:58:55;;;;;;;;;;;;;;;12.77;100.00;100555.31;3056309;19;19919;-46
2022/11/02 02:00:05;;;;;;;;;;;;;;;12.79;100.00;100553.38;3056921;19;19946;-48
2022/11/02 02:01:14;;;;;;;;;;;;;;;12.79;100.00;100551.56;3057018;19;19919;-51
2022/11/02 02:02:20;;;;;;;;;;;;;;;12.80;100.00;100550.56;3057085;19;19918;-48
2022/11/02 02:03:23;;;;;;;;;;;;;;;12.79;100.00;100553.38;3057597;19;19915;-42
2022/11/02 02:04:27;;;;;;;;;;;;;;;12.81;100.00;100556.78;3057022;19;20254;-45
2022/11/02 02:05:31;;;;;;;;;;;;;;;12.82;100.00;100554.00;3056510;19;19932;-44
2022/11/02 02:06:35;;;;;;;;;;;;;;;12.81;100.00;100560.31;3056416;19;20310;-51
2022/11/02 02:07:38;;;;;;;;;;;;;;;12.82;100.00;100558.50;3056669;19;19918;-49
2022/11/02 02:08:44;;;;;;;;;;;;;;;12.82;100.00;100547.78;3057068;19;19918;-45
2022/11/02 02:09:47;;;;;;;;;;;;;;;12.83;100.00;100549.50;3056318;19;19946;-47
2022/11/02 02:10:58;;;;;;;;;;;;;;;12.84;100.00;100551.22;3057187;19;19919;-48
2022/11/02 02:11:59;;;;;;;;;;;;;;;12.83;100.00;100547.69;3056458;19;20279;-46
2022/11/02 02:13:04;;;;;;;;;;;;;;;12.84;100.00;100548.53;3057269;19;19935;-48
2022/11/02 02:14:11;;;;;;;;;;;;;;;12.83;100.00;100549.50;3056107;19;19915;-47
2022/11/02 02:15:23;;;;;;;;;;;;;;;12.82;100.00;100547.78;3056712;19;19919;-44
2022/11/02 02:16:39;;;;;;;;;;;;;;;12.81;100.00;100548.75;3056607;19;19946;-45
2022/11/02 02:17:49;;;;;;;;;;;;;;;12.81;100.00;100551.44;3056944;19;19930;-48
2022/11/02 02:18:57;;;;;;;;;;;;;;;12.81;100.00;100540.72;3056753;19;19982;-49
2022/11/02 02:20:06;;;;;;;;;;;;;;;12.82;100.00;100542.44;3056227;19;19941;-46
2022/11/02 02:21:15;;;;;;;;;;;;;;;12.81;100.00;100546.06;3056907;19;19919;-48
2022/11/02 02:22:34;;;;;;;;;;;;;;;12.80;100.00;100539.03;3056551;19;19923;-49
2022/11/02 02:23:43;;;;;;;;;;;;;;;12.79;100.00;100542.69;3056839;19;19927;-52
2022/11/02 02:24:47;;;;;;;;;;;;;;;12.81;100.00;100548.75;3056145;19;19978;-47
2022/11/02 02:26:08;;;;;;;;;;;;;;;12.80;100.00;100544.38;3056612;19;19940;-49
2022/11/02 02:27:17;;;;;;;;;;;;;;;12.79;100.00;100545.34;3056333;19;19919;-49
2022/11/02 02:28:24;;;;;;;;;;;;;;;12.78;100.00;100551.66;3056299;19;20653;-47
2022/11/02 02:29:47;;;;;;;;;;;;;;;12.78;100.00;100540.97;3056264;19;20267;-49
2022/11/02 02:30:59;;;;;;;;;;;;;;;12.77;100.00;100550.81;3056776;19;19930;-51
2022/11/02 02:32:24;;;;;;;;;;;;;;;12.76;100.00;100554.44;3056496;19;19919;-47
2022/11/02 02:33:31;;;;;;;;;;;;;;;12.77;100.00;100552.63;3056746;19;19918;-52
2022/11/02 02:34:45;;;;;;;;;;;;;;;12.73;100.00;100549.28;3055797;19;19938;-49
2022/11/02 02:35:48;;;;;;;;;;;;;;;12.72;100.00;100546.72;3056885;19;20397;-48
2022/11/02 02:36:55;;;;;;;;;;;;;;;12.73;100.00;100545.75;3056265;19;19990;-45
2022/11/02 02:37:59;;;;;;;;;;;;;;;12.74;100.00;100547.47;3056795;19;19922;-47
2022/11/02 02:39:07;;;;;;;;;;;;;;;12.74;100.00;100544.81;3055859;19;20282;-45
2022/11/02 02:40:19;;;;;;;;;;;;;;;12.76;100.00;100556.28;3056323;19;19931;-50
2022/11/02 02:41:39;;;;;;;;;;;;;;;12.73;100.00;100546.63;3056071;19;20051;-48
2022/11/02 02:43:01;;;;;;;;;;;;;;;12.76;100.00;100550.91;3056746;19;20468;-49
2022/11/02 02:44:05;;;;;;;;;;;;;;;12.76;100.00;100543.75;3055334;19;19923;-51
2022/11/02 02:45:12;;;;;;;;;;;;;;;12.78;100.00;100541.81;3055934;19;19935;-50
2022/11/02 02:46:22;;;;;;;;;;;;;;;12.80;100.00;100544.38;3056299;19;19919;-46
2022/11/02 02:47:26;;;;;;;;;;;;;;;12.82;100.00;100545.13;3056300;19;19926;-51
2022/11/02 02:48:33;;;;;;;;;;;;;;;12.83;100.00;100545.00;3056323;19;19950;-44
2022/11/02 02:49:39;;;;;;;;;;;;;;;12.85;100.00;100543.09;3055978;19;19919;-49
2022/11/02 02:50:54;;;;;;;;;;;;;;;12.83;100.00;100539.66;3056542;19;19918;-47
2022/11/02 02:51:56;;;;;;;;;;;;;;;12.87;100.00;100541.16;3056048;19;19952;-45
2022/11/02 02:53:01;;;;;;;;;;;;;;;12.90;100.00;100532.91;3056069;19;19994;-49
2022/11/02 02:54:04;;;;;;;;;;;;;;;12.92;100.00;100532.81;3055841;19;20434;-48
2022/11/02 02:55:08;;;;;;;;;;;;;;;12.93;100.00;100539.84;3055485;19;19930;-46
2022/11/02 02:56:10;;;;;;;;;;;;;;;12.95;100.00;100530.75;3055885;19;19982;-49
2022/11/02 02:57:16;;;;;;;;;;;;;;;12.95;100.00;100529.91;3056336;19;19930;-49
2022/11/02 02:58:22;;;;;;;;;;;;;;;12.97;100.00;100531.50;3055323;19;19947;-46
2022/11/02 02:59:28;;;;;;;;;;;;;;;12.99;100.00;100532.25;3056374;19;19975;-49
2022/11/02 03:00:32;;;;;;;;;;;;;;;12.99;100.00;100540.31;3057194;19;19926;-48
2022/11/02 03:01:40;;;;;;;;;;;;;;;12.98;100.00;100533.22;3055816;19;19923;-50
2022/11/02 03:02:42;;;;;;;;;;;;;;;13.01;100.00;100537.50;3056012;19;19915;-47
2022/11/02 03:03:47;;;;;;;;;;;;;;;13.03;100.00;100543.63;3054022;19;19919;-50
2022/11/02 03:04:49;;;;;;;;;;;;;;;13.04;100.00;100531.91;3056059;19;19922;-49
2022/11/02 03:06:03;;;;;;;;;;;;;;;13.06;100.00;100535.34;3056748;19;19939;-47
2022/11/02 03:07:07;;;;;;;;;;;;;;;13.08;100.00;100528.06;3056116;19;19929;-44
2022/11/02 03:08:13;;;;;;;;;;;;;;;13.10;100.00;100536.84;3055639;19;19918;-49
2022/11/02 03:09:33;;;;;;;;;;;;;;;13.10;100.00;100536.84;3055984;19;19922;-50
2022/11/02 03:10:40;;;;;;;;;;;;;;;13.12;100.00;100534.94;3055799;19;19915;-46
2022/11/02 03:11:50;;;;;;;;;;;;;;;13.14;100.00;100541.06;3055938;19;19918;-51
2022/11/02 03:12:55;;;;;;;;;;;;;;;13.17;100.00;100542.66;3055568;19;20435;-49
2022/11/02 03:14:06;;;;;;;;;;;;;;;13.16;100.00;100536.44;3055765;19;19935;-48
2022/11/02 03:15:32;;;;;;;;;;;;;;;13.18;100.00;100533.66;3055588;19;19919;-47
2022/11/02 03:16:40;;;;;;;;;;;;;;;13.18;100.00;100539.00;3055838;19;19926;-48
2022/11/02 03:18:04;;;;;;;;;;;;;;;13.18;100.00;100539.88;3056225;19;19922;-52
2022/11/02 03:19:16;;;;;;;;;;;;;;;13.15;100.00;100537.44;3055336;19;19949;-47
2022/11/02 03:20:27;;;;;;;;;;;;;;;13.21;100.00;100539.66;3055994;19;19918;-49
2022/11/02 03:21:29;;;;;;;;;;;;;;;13.22;100.00;100545.88;3056078;19;20596;-46
2022/11/02 03:22:43;;;;;;;;;;;;;;;13.23;100.00;100536.88;3055389;19;19922;-47
2022/11/02 03:23:50;;;;;;;;;;;;;;;13.22;100.00;100541.38;3056037;19;19931;-49
2022/11/02 03:25:04;;;;;;;;;;;;;;;13.23;100.00;100536.88;3055172;19;20559;-49
2022/11/02 03:26:29;;;;;;;;;;;;;;;13.23;100.00;100537.72;3055883;19;19994;-49
2022/11/02 03:27:53;;;;;;;;;;;;;;;13.21;100.00;100545.00;3055388;19;19970;-50
2022/11/02 03:28:57;;;;;;;;;;;;;;;13.21;100.00;100545.00;3054564;19;19922;-51
2022/11/02 03:30:03;;;;;;;;;;;;;;;13.21;100.00;100542.34;3055833;19;19923;-50
2022/11/02 03:31:10;;;;;;;;;;;;;;;13.19;100.00;100541.59;3055547;19;19975;-47
2022/11/02 03:32:13;;;;;;;;;;;;;;;13.18;100.00;100541.69;3055621;19;20476;-49
2022/11/02 03:33:20;;;;;;;;;;;;;;;13.17;100.00;100543.50;3055628;19;19930;-52
2022/11/02 03:34:23;;;;;;;;;;;;;;;13.16;100.00;100541.78;3055456;19;20285;-50
2022/11/02 03:35:30;;;;;;;;;;;;;;;13.15;100.00;100542.78;3055044;19;19944;-50
2022/11/02 03:36:32;;;;;;;;;;;;;;;13.17;100.00;100548.88;3055422;19;20460;-50
2022/11/02 03:37:39;;;;;;;;;;;;;;;13.17;100.00;100548.00;3053972;19;19953;-46
2022/11/02 03:38:42;;;;;;;;;;;;;;;13.13;100.00;100531.28;3055618;19;19918;-50
2022/11/02 03:39:51;;;;;;;;;;;;;;;13.16;100.00;100541.78;3055125;19;19919;-50
2022/11/02 03:40:53;;;;;;;;;;;;;;;13.18;100.00;100544.38;3055486;19;20098;-47
2022/11/02 03:41:58;;;;;;;;;;;;;;;13.17;100.00;100532.78;3055007;19;19924;-47
2022/11/02 03:42:59;;;;;;;;;;;;;;;13.18;100.00;100536.31;3055627;19;20257;-47
2022/11/02 03:44:06;;;;;;;;;;;;;;;13.19;100.00;100541.59;3055232;19;19919;-47
2022/11/02 03:45:17;;;;;;;;;;;;;;;13.22;100.00;100540.50;3055422;19;19942;-47
2022/11/02 03:46:19;;;;;;;;;;;;;;;13.21;100.00;100539.66;3055371;19;19981;-45
2022/11/02 03:47:24;;;;;;;;;;;;;;;13.21;100.00;100545.00;3055497;19;19975;-49
2022/11/02 03:48:28;;;;;;;;;;;;;;;13.22;100.00;100546.72;3055394;19;19927;-48
2022/11/02 03:49:34;;;;;;;;;;;;;;;13.21;100.00;100545.00;3055312;19;19918;-52
2022/11/02 03:50:36;;;;;;;;;;;;;;;13.21;100.00;100542.34;3055400;19;20034;-46
2022/11/02 03:51:41;;;;;;;;;;;;;;;13.23;100.00;100547.59;3056165;19;19914;-47
2022/11/02 03:52:44;;;;;;;;;;;;;;;13.24;100.00;100550.16;3055441;19;19988;-47
2022/11/02 03:53:53;;;;;;;;;;;;;;;13.25;100.00;100545.66;3054897;19;19989;-49
2022/11/02 03:55:00;;;;;;;;;;;;;;;13.25;100.00;100551.88;3055555;19;19998;-47
2022/11/02 03:56:06;;;;;;;;;;;;;;;13.24;100.00;100544.81;3054712;19;20058;-47
2022/11/02 03:57:12;;;;;;;;;;;;;;;13.25;100.00;100543.84;3055188;19;20346;-48
2022/11/02 03:58:17;;;;;;;;;;;;;;;13.26;100.00;100542.88;3054499;19;19927;-49
2022/11/02 03:59:19;;;;;;;;;;;;;;;13.26;100.00;100548.22;3055411;19;19927;-50
2022/11/02 04:00:24;;;;;;;;;;;;;;;13.26;100.00;100553.59;3053814;19;19922;-49
2022/11/02 04:01:35;;;;;;;;;;;;;;;13.28;100.00;100546.28;3057178;19;19935;-49
2022/11/02 04:02:40;;;;;;;;;;;;;;;13.29;100.00;100547.13;3055158;19;19943;-52
2022/11/02 04:03:43;;;;;;;;;;;;;;;13.29;100.00;100545.31;3055734;19;19954;-46
2022/11/02 04:04:53;;;;;;;;;;;;;;;13.32;100.00;100541.56;3054665;19;19918;-45
2022/11/02 04:05:58;;;;;;;;;;;;;;;13.32;100.00;100546.91;3055366;19;19922;-49
2022/11/02 04:07:07;;;;;;;;;;;;;;;13.31;100.00;100546.06;3055003;19;19930;-46
2022/11/02 04:08:21;;;;;;;;;;;;;;;13.31;100.00;100543.38;3055467;19;19934;-44
2022/11/02 04:09:30;;;;;;;;;;;;;;;13.30;100.00;100548.84;3055238;19;19949;-48
2022/11/02 04:10:31;;;;;;;;;;;;;;;13.30;100.00;100548.84;3055140;19;19923;-45
2022/11/02 04:15:28;;;;;;;;;;;;;;;13.30;100.00;100544.34;3057826;19;20365;-50
2022/11/02 04:16:30;;;;;;;;;;;;;;;13.29;100.00;100550.66;3057447;19;19923;-47
2022/11/02 04:20:11;;;;;;;;;;;;;;;13.36;100.00;100544.88;3058575;19;19926;-47
2022/11/02 04:21:13;;;;;;;;;;;;;;;13.37;100.00;100543.91;3057803;19;19918;-47
2022/11/02 04:25:17;;;;;;;;;;;;;;;13.42;100.00;100547.09;3057467;19;19947;-48
2022/11/02 04:26:27;;;;;;;;;;;;;;;13.39;100.00;100542.00;3057994;19;19965;-46
2022/11/02 04:27:31;;;;;;;;;;;;;;;13.38;100.00;100548.31;3058111;19;19919;-49
2022/11/02 04:28:33;;;;;;;;;;;;;;;13.40;100.00;100549.06;3058281;19;19930;-45
2022/11/02 04:29:38;;;;;;;;;;;;;;;13.41;100.00;100551.59;3057649;19;19946;-48
2022/11/02 04:30:39;;;;;;;;;;;;;;;13.42;100.00;100544.41;3058247;19;19954;-51
2022/11/02 04:31:44;;;;;;;;;;;;;;;13.41;100.00;100550.75;3058009;19;19919;-46
2022/11/02 04:34:11;;;;;;;;;;;;;;;13.43;100.00;100549.69;3058076;19;19941;-49
2022/11/02 04:35:13;;;;;;;;;;;;;;;13.44;100.00;100550.53;3058027;19;19931;-45
2022/11/02 04:36:20;;;;;;;;;;;;;;;13.44;100.00;100548.72;3057320;19;20340;-49
2022/11/02 04:38:43;;;;;;;;;;;;;;;13.44;100.00;100546.03;3058418;19;19927;-49
2022/11/02 04:39:58;;;;;;;;;;;;;;;13.45;100.00;100546.88;3057641;19;19915;-47
2022/11/02 04:42:30;;;;;;;;;;;;;;;13.46;100.00;100548.59;3056649;19;19915;-49
2022/11/02 04:43:34;;;;;;;;;;;;;;;13.46;100.00;100548.59;3058230;19;20389;-49
2022/11/02 04:44:36;;;;;;;;;;;;;;;13.45;100.00;100555.78;3058008;19;20023;-49
2022/11/02 04:45:54;;;;;;;;;;;;;;;13.47;100.00;100550.31;3057819;19;19922;-50
2022/11/02 04:46:59;;;;;;;;;;;;;;;13.47;100.00;100555.69;3058224;19;19930;-47
2022/11/02 04:48:05;;;;;;;;;;;;;;;13.46;100.00;100552.16;3057847;19;20266;-51
2022/11/02 04:49:10;;;;;;;;;;;;;;;13.47;100.00;100547.63;3057268;19;19990;-45
2022/11/02 04:50:13;;;;;;;;;;;;;;;13.48;100.00;100541.31;3059585;19;20741;-49
2022/11/02 04:51:19;;;;;;;;;;;;;;;13.49;100.00;100551.06;3058213;19;19991;-49
2022/11/02 04:52:21;;;;;;;;;;;;;;;13.49;100.00;100548.41;3059104;19;19998;-49
2022/11/02 04:53:27;;;;;;;;;;;;;;;13.48;100.00;100544.84;3058032;19;19918;-47
2022/11/02 04:54:29;;;;;;;;;;;;;;;13.47;100.00;100550.31;3057511;19;19923;-50
2022/11/02 04:55:37;;;;;;;;;;;;;;;13.48;100.00;100554.72;3057950;19;20336;-48
2022/11/02 04:56:40;;;;;;;;;;;;;;;13.47;100.00;100551.19;3056971;19;20170;-45
2022/11/02 04:57:48;;;;;;;;;;;;;;;13.48;100.00;100557.41;3057874;19;20333;-52
2022/11/02 04:58:50;;;;;;;;;;;;;;;13.47;100.00;100558.38;3056451;19;20302;-47
2022/11/02 04:59:54;;;;;;;;;;;;;;;13.48;100.00;100557.41;3057720;19;19923;-46
2022/11/02 05:00:56;;;;;;;;;;;;;;;13.46;100.00;100553.97;3058290;19;19926;-49
2022/11/02 05:02:01;;;;;;;;;;;;;;;13.47;100.00;100558.38;3058118;19;19915;-51
2022/11/02 05:03:03;;;;;;;;;;;;;;;13.49;100.00;100559.13;3058863;19;20554;-48
2022/11/02 05:04:14;;;;;;;;;;;;;;;13.49;100.00;100556.44;3058680;19;19927;-46
2022/11/02 05:05:17;;;;;;;;;;;;;;;13.49;100.00;100559.13;3057539;19;19966;-49
2022/11/02 05:06:22;;;;;;;;;;;;;;;13.49;100.00;100556.44;3057879;19;19918;-47
2022/11/02 05:07:23;;;;;;;;;;;;;;;13.50;100.00;100560.84;3057939;19;19923;-47
2022/11/02 05:08:28;;;;;;;;;;;;;;;13.47;100.00;100559.22;3055913;19;19926;-50
2022/11/02 05:09:30;;;;;;;;;;;;;;;13.50;100.00;100566.19;3058647;19;20487;-45
2022/11/02 05:10:35;;;;;;;;;;;;;;;13.44;100.00;100561.25;3058021;19;19935;-45
2022/11/02 05:11:38;;;;;;;;;;;;;;;13.42;100.00;100569.41;3056542;19;19930;-49
2022/11/02 05:12:43;;;;;;;;;;;;;;;13.41;100.00;100561.47;3057390;19;20391;-49
2022/11/02 05:13:46;;;;;;;;;;;;;;;13.43;100.00;100565.75;3057501;19;19982;-47
2022/11/02 05:14:50;;;;;;;;;;;;;;;13.46;100.00;100564.69;3056106;19;20304;-47
2022/11/02 05:15:56;;;;;;;;;;;;;;;13.48;100.00;100571.66;3056770;19;19927;-47
2022/11/02 05:17:00;;;;;;;;;;;;;;;13.46;100.00;100564.69;3055149;19;20349;-51
2022/11/02 05:18:02;;;;;;;;;;;;;;;13.43;100.00;100570.28;3056519;19;19929;-47
2022/11/02 05:19:07;;;;;;;;;;;;;;;13.44;100.00;100569.31;3055959;19;20036;-49
2022/11/02 05:20:12;;;;;;;;;;;;;;;13.41;100.00;100572.19;3056600;19;19919;-47
2022/11/02 05:21:18;;;;;;;;;;;;;;;13.42;100.00;100571.22;3056309;19;19923;-49
2022/11/02 05:22:21;;;;;;;;;;;;;;;13.46;100.00;100575.41;3056156;19;20389;-51
2022/11/02 05:23:26;;;;;;;;;;;;;;;13.45;100.00;100568.34;3056111;19;19986;-49
2022/11/02 05:24:28;;;;;;;;;;;;;;;13.46;100.00;100565.56;3056038;19;20696;-50
2022/11/02 05:25:32;;;;;;;;;;;;;;;13.43;100.00;100575.63;3056002;19;19986;-46
2022/11/02 05:26:34;;;;;;;;;;;;;;;13.45;100.00;100574.56;3055611;19;19954;-47
2022/11/02 05:27:39;;;;;;;;;;;;;;;13.46;100.00;100576.28;3055664;19;20352;-49
2022/11/02 05:28:42;;;;;;;;;;;;;;;13.46;100.00;100576.28;3056093;19;19930;-47
2022/11/02 05:29:46;;;;;;;;;;;;;;;13.43;100.00;100564.91;3056094;19;19918;-46
2022/11/02 05:30:48;;;;;;;;;;;;;;;13.46;100.00;100570.06;3057811;19;19935;-47
2022/11/02 05:31:52;;;;;;;;;;;;;;;13.47;100.00;100577.13;3059087;19;19993;-50
2022/11/02 05:32:55;;;;;;;;;;;;;;;13.48;100.00;100568.13;3058438;19;19931;-49
2022/11/02 05:34:00;;;;;;;;;;;;;;;13.49;100.00;100580.56;3056685;19;19945;-51
2022/11/02 05:35:01;;;;;;;;;;;;;;;13.38;100.00;100572.44;3057420;19;19938;-44
2022/11/02 05:36:06;;;;;;;;;;;;;;;13.44;100.00;100571.97;3057255;19;19919;-48
2022/11/02 05:37:10;;;;;;;;;;;;;;;13.43;100.00;100581.00;3056766;19;20039;-51
2022/11/02 05:38:14;;;;;;;;;;;;;;;13.43;100.00;100578.31;3056733;19;20360;-48
2022/11/02 05:39:18;;;;;;;;;;;;;;;13.46;100.00;100572.75;3057160;19;20285;-45
2022/11/02 05:40:23;;;;;;;;;;;;;;;13.46;100.00;100576.28;3056844;19;19918;-50
2022/11/02 05:41:25;;;;;;;;;;;;;;;13.49;100.00;100575.19;3057161;19;19923;-46
2022/11/02 05:42:32;;;;;;;;;;;;;;;13.50;100.00;100579.59;3056984;19;20388;-47
2022/11/02 05:43:33;;;;;;;;;;;;;;;13.36;100.00;100566.31;3057372;19;19926;-44
2022/11/02 05:44:40;;;;;;;;;;;;;;;13.41;100.00;100572.19;3056822;19;19919;-49
2022/11/02 05:45:42;;;;;;;;;;;;;;;13.44;100.00;100583.56;3057374;19;20324;-50
2022/11/02 05:46:47;;;;;;;;;;;;;;;13.45;100.00;100573.69;3057588;19;19964;-49